createdAt,value
2022-10-14T00:01:27.141Z,15.47
2022-10-14T00:03:56.858Z,14.90
2022-10-14T00:06:27.742Z,14.70
2022-10-14T00:09:00.585Z,15.37
2022-10-14T00:11:31.338Z,15.63
2022-10-14T00:14:01.516Z,15.07
2022-10-14T00:16:31.984Z,15.33
2022-10-14T00:19:01.951Z,15.13
2022-10-14T00:21:31.606Z,16.03
2022-10-14T00:23:59.997Z,16.97
2022-10-14T00:26:30.977Z,14.43
2022-10-14T00:29:00.335Z,16.10
2022-10-14T00:31:32.613Z,16.47
2022-10-14T00:34:02.578Z,16.80
2022-10-14T00:36:31.050Z,16.40
2022-10-14T00:38:59.274Z,15.83
2022-10-14T00:41:30.193Z,15.20
2022-10-14T00:44:01.824Z,15.60
2022-10-14T00:46:32.043Z,16.53
2022-10-14T00:49:08.887Z,15.80
2022-10-14T00:51:39.959Z,16.50
2022-10-14T00:54:09.161Z,15.57
2022-10-14T00:56:38.040Z,15.50
2022-10-14T00:59:12.903Z,14.47
2022-10-14T01:01:41.155Z,15.97
2022-10-14T01:04:10.713Z,15.40
2022-10-14T01:06:48.973Z,15.90
2022-10-14T01:09:29.068Z,15.20
2022-10-14T01:12:28.024Z,15.73
2022-10-14T01:15:05.158Z,14.87
2022-10-14T01:17:45.389Z,14.43
2022-10-14T01:20:39.952Z,14.80
2022-10-14T01:23:32.171Z,14.90
2022-10-14T01:26:14.607Z,14.20
2022-10-14T01:28:53.215Z,15.63
2022-10-14T01:31:25.855Z,14.17
2022-10-14T01:33:57.940Z,15.27
2022-10-14T01:36:33.479Z,16.30
2022-10-14T01:39:09.777Z,16.23
2022-10-14T01:41:44.399Z,15.57
2022-10-14T01:44:15.508Z,16.17
2022-10-14T01:46:48.616Z,16.00
2022-10-14T01:49:21.158Z,16.17
2022-10-14T01:51:53.960Z,16.33
2022-10-14T01:54:26.486Z,16.73
2022-10-14T01:56:56.793Z,16.67
2022-10-14T01:59:25.885Z,15.63
2022-10-14T02:01:55.478Z,16.47
2022-10-14T02:04:24.741Z,16.10
2022-10-14T02:07:01.207Z,16.90
2022-10-14T02:09:37.402Z,16.70
2022-10-14T02:12:21.508Z,16.63
2022-10-14T02:14:54.159Z,16.47
2022-10-14T02:17:31.739Z,16.67
2022-10-14T02:20:06.474Z,16.50
2022-10-14T02:22:39.345Z,15.43
2022-10-14T02:25:27.579Z,17.17
2022-10-14T02:27:56.128Z,15.97
2022-10-14T02:30:27.126Z,16.13
2022-10-14T02:33:01.274Z,16.07
2022-10-14T02:35:31.901Z,16.27
2022-10-14T02:38:00.857Z,17.17
2022-10-14T02:40:34.549Z,16.67
2022-10-14T02:43:02.853Z,16.43
2022-10-14T02:45:31.002Z,15.70
2022-10-14T02:48:02.506Z,16.73
2022-10-14T02:50:31.187Z,16.27
2022-10-14T02:52:59.394Z,15.83
2022-10-14T02:55:27.765Z,16.03
2022-10-14T02:57:56.600Z,15.40
2022-10-14T03:00:27.480Z,15.73
2022-10-14T03:02:57.835Z,17.27
2022-10-14T03:05:31.230Z,15.97
2022-10-14T03:07:59.559Z,17.33
2022-10-14T03:10:29.817Z,17.40
2022-10-14T03:12:58.872Z,15.73
2022-10-14T03:15:32.043Z,17.97
2022-10-14T03:18:01.000Z,16.33
2022-10-14T03:20:39.722Z,15.93
2022-10-14T03:23:09.862Z,15.77
2022-10-14T03:25:39.498Z,16.23
2022-10-14T03:28:16.095Z,14.83
2022-10-14T03:30:51.333Z,15.37
2022-10-14T03:33:34.206Z,15.43
2022-10-14T03:36:15.525Z,15.73
2022-10-14T03:38:49.054Z,15.37
2022-10-14T03:41:37.538Z,14.73
2022-10-14T03:44:07.053Z,15.73
2022-10-14T03:46:37.591Z,15.47
2022-10-14T03:49:06.127Z,14.43
2022-10-14T03:51:36.075Z,15.00
2022-10-14T03:54:14.840Z,15.17
2022-10-14T03:56:43.140Z,13.83
2022-10-14T03:59:11.619Z,14.30
2022-10-14T04:01:40.230Z,15.20
2022-10-14T04:04:19.831Z,14.67
2022-10-14T04:06:50.784Z,15.00
2022-10-14T04:09:21.382Z,14.90
2022-10-14T04:11:49.926Z,13.90
2022-10-14T04:14:38.049Z,14.23
2022-10-14T04:17:07.472Z,15.70
2022-10-14T04:19:35.658Z,14.97
2022-10-14T04:22:06.093Z,15.27
2022-10-14T04:24:35.255Z,16.57
2022-10-14T04:27:03.677Z,17.20
2022-10-14T04:29:41.216Z,16.00
2022-10-14T04:32:16.100Z,15.90
2022-10-14T04:34:44.577Z,16.50
2022-10-14T04:37:17.562Z,14.70
2022-10-14T04:39:55.148Z,15.27
2022-10-14T04:42:24.424Z,14.47
2022-10-14T04:44:58.041Z,15.37
2022-10-14T04:47:37.451Z,14.07
2022-10-14T04:50:06.798Z,14.77
2022-10-14T04:52:38.071Z,14.47
2022-10-14T04:55:13.746Z,14.23
2022-10-14T04:57:44.326Z,13.77
2022-10-14T05:00:14.474Z,13.07
2022-10-14T05:03:05.740Z,13.40
2022-10-14T05:05:37.077Z,13.23
2022-10-14T05:08:08.686Z,12.97
2022-10-14T05:10:43.138Z,14.07
2022-10-14T05:13:18.642Z,14.27
2022-10-14T05:16:13.326Z,13.47
2022-10-14T05:18:41.639Z,13.37
2022-10-14T05:21:12.177Z,12.80
2022-10-14T05:23:52.700Z,14.27
2022-10-14T05:26:21.209Z,13.40
2022-10-14T05:28:52.892Z,13.60
2022-10-14T05:31:22.596Z,13.53
2022-10-14T05:34:02.467Z,14.77
2022-10-14T05:36:30.728Z,13.97
2022-10-14T05:39:00.354Z,13.43
2022-10-14T05:41:35.090Z,12.80
2022-10-14T05:44:04.382Z,13.33
2022-10-14T05:46:33.161Z,11.57
2022-10-14T05:49:05.957Z,11.80
2022-10-14T05:51:37.786Z,14.40
2022-10-14T05:54:14.873Z,12.87
2022-10-14T05:56:44.984Z,13.77
2022-10-14T05:59:14.092Z,18.37
2022-10-14T06:01:43.741Z,16.00
2022-10-14T06:04:18.725Z,11.87
2022-10-14T06:06:47.583Z,14.20
2022-10-14T06:09:18.712Z,16.43
2022-10-14T06:11:46.940Z,11.90
2022-10-14T06:14:15.239Z,15.33
2022-10-14T06:16:43.678Z,13.63
2022-10-14T06:19:11.955Z,14.37
2022-10-14T06:21:40.258Z,15.27
2022-10-14T06:24:08.994Z,14.13
2022-10-14T06:26:38.762Z,22.27
2022-10-14T06:29:07.122Z,17.77
2022-10-14T06:31:35.383Z,14.53
2022-10-14T06:34:06.075Z,20.77
2022-10-14T06:36:34.583Z,16.67
2022-10-14T06:39:02.951Z,21.23
2022-10-14T06:41:33.142Z,12.80
2022-10-14T06:44:02.726Z,12.47
2022-10-14T06:46:31.595Z,17.50
2022-10-14T06:48:59.819Z,13.13
2022-10-14T06:51:28.050Z,14.47
2022-10-14T06:53:56.254Z,14.17
2022-10-14T06:56:24.435Z,11.57
2022-10-14T06:58:54.768Z,10.83
2022-10-14T07:01:24.936Z,10.57
2022-10-14T07:03:55.904Z,10.23
2022-10-14T07:06:25.082Z,9.80
2022-10-14T07:08:53.201Z,10.87
2022-10-14T07:11:21.542Z,13.40
2022-10-14T07:13:49.776Z,11.67
2022-10-14T07:16:17.930Z,11.50
2022-10-14T07:18:47.539Z,9.43
2022-10-14T07:21:15.963Z,9.83
2022-10-14T07:23:44.173Z,10.17
2022-10-14T07:26:13.061Z,9.73
2022-10-14T07:28:41.256Z,10.70
2022-10-14T07:31:11.471Z,14.87
2022-10-14T07:33:40.928Z,12.30
2022-10-14T07:36:15.152Z,9.23
2022-10-14T07:38:46.241Z,10.67
2022-10-14T07:41:18.283Z,10.57
2022-10-14T07:43:47.661Z,11.77
2022-10-14T07:46:17.285Z,10.23
2022-10-14T07:48:56.772Z,18.77
2022-10-14T07:51:27.471Z,9.20
2022-10-14T07:53:56.197Z,12.73
2022-10-14T07:56:25.134Z,11.53
2022-10-14T07:58:53.657Z,12.17
2022-10-14T08:01:22.152Z,17.90
2022-10-14T08:03:50.489Z,10.30
2022-10-14T08:06:18.849Z,12.67
2022-10-14T08:08:48.449Z,14.83
2022-10-14T08:11:19.316Z,17.20
2022-10-14T08:13:47.829Z,16.70
2022-10-14T08:16:17.627Z,10.20
2022-10-14T08:18:46.781Z,14.53
2022-10-14T08:21:16.078Z,11.27
2022-10-14T08:23:44.577Z,15.33
2022-10-14T08:26:21.347Z,24.60
2022-10-14T08:28:52.266Z,20.67
2022-10-14T08:31:20.837Z,12.87
2022-10-14T08:33:49.363Z,13.20
2022-10-14T08:36:18.629Z,22.43
2022-10-14T08:38:47.152Z,44.00
2022-10-14T08:41:27.285Z,18.77
2022-10-14T08:44:06.995Z,32.67
2022-10-14T08:46:40.253Z,15.47
2022-10-14T08:49:16.780Z,10.10
2022-10-14T08:51:49.397Z,12.47
2022-10-14T08:54:27.297Z,8.87
2022-10-14T08:56:58.753Z,8.60
2022-10-14T08:59:28.137Z,14.07
2022-10-14T09:02:01.639Z,7.87
2022-10-14T09:04:39.258Z,8.20
2022-10-14T09:07:07.942Z,7.50
2022-10-14T09:09:43.019Z,10.57
2022-10-14T09:12:16.212Z,8.10
2022-10-14T09:14:48.478Z,7.43
2022-10-14T09:17:21.641Z,10.20
2022-10-14T09:19:53.425Z,6.40
2022-10-14T09:22:22.079Z,5.90
2022-10-14T09:24:50.585Z,10.53
2022-10-14T09:27:22.670Z,6.30
2022-10-14T09:29:54.384Z,7.33
2022-10-14T09:32:32.087Z,5.33
2022-10-14T09:35:00.473Z,6.50
2022-10-14T09:37:30.675Z,6.17
2022-10-14T09:40:03.117Z,5.97
2022-10-14T09:42:48.854Z,5.03
2022-10-14T09:45:19.594Z,11.33
2022-10-14T09:47:54.226Z,5.20
2022-10-14T09:50:26.241Z,8.40
2022-10-14T09:52:58.529Z,7.90
2022-10-14T09:55:26.948Z,7.13
2022-10-14T09:58:05.626Z,4.50
2022-10-14T10:00:39.591Z,5.00
2022-10-14T10:03:09.930Z,4.60
2022-10-14T10:05:40.690Z,6.00
2022-10-14T10:08:17.888Z,4.25
2022-10-14T10:11:03.711Z,4.67
2022-10-14T10:13:45.664Z,3.50
2022-10-14T10:16:23.437Z,2.97
2022-10-14T10:18:53.164Z,3.47
2022-10-14T10:21:26.554Z,3.90
2022-10-14T10:24:00.052Z,4.50
2022-10-14T10:26:31.900Z,6.17
2022-10-14T10:29:03.567Z,9.33
2022-10-14T10:32:07.587Z,5.67
2022-10-14T10:34:58.428Z,6.33
2022-10-14T10:37:29.410Z,6.30
2022-10-14T10:40:31.318Z,8.40
2022-10-14T10:43:33.812Z,7.10
2022-10-14T10:46:24.283Z,6.67
2022-10-14T10:48:57.807Z,7.07
2022-10-14T10:51:34.700Z,6.63
2022-10-14T10:54:20.361Z,7.88
2022-10-14T10:56:52.449Z,7.93
2022-10-14T10:59:35.324Z,7.50
2022-10-14T11:02:38.328Z,8.50
2022-10-14T11:05:13.676Z,9.93
2022-10-14T11:08:12.758Z,10.38
2022-10-14T11:11:09.656Z,9.55
2022-10-14T11:13:47.611Z,8.52
2022-10-14T11:16:26.670Z,9.85
2022-10-14T11:19:03.955Z,10.45
2022-10-14T11:21:40.595Z,11.00
2022-10-14T11:27:00.681Z,10.55
2022-10-14T11:29:53.885Z,10.18
2022-10-14T11:32:26.363Z,10.90
2022-10-14T11:35:06.074Z,11.00
2022-10-14T11:37:45.464Z,12.60
2022-10-14T11:40:22.788Z,10.93
2022-10-14T11:43:02.569Z,10.02
2022-10-14T11:45:49.960Z,11.27
2022-10-14T11:48:28.322Z,10.82
2022-10-14T11:51:03.220Z,11.40
2022-10-14T11:53:43.036Z,11.82
2022-10-14T11:56:24.232Z,13.07
2022-10-14T11:58:54.800Z,11.65
2022-10-14T12:01:34.190Z,11.98
2022-10-14T12:04:12.137Z,12.38
2022-10-14T12:06:46.591Z,13.00
2022-10-14T12:09:24.704Z,12.13
2022-10-14T12:11:58.284Z,13.30
2022-10-14T12:14:35.005Z,13.73
2022-10-14T12:17:06.743Z,13.80
2022-10-14T12:19:35.422Z,13.27
2022-10-14T12:22:14.687Z,14.07
2022-10-14T12:24:45.992Z,14.75
2022-10-14T12:27:16.189Z,14.27
2022-10-14T12:29:47.727Z,13.55
2022-10-14T12:32:24.630Z,14.65
2022-10-14T12:34:54.915Z,14.57
2022-10-14T12:37:52.567Z,14.35
2022-10-14T12:40:29.317Z,13.45
2022-10-14T12:43:16.904Z,14.18
2022-10-14T12:46:00.582Z,13.70
2022-10-14T12:48:33.304Z,12.75
2022-10-14T12:51:13.520Z,12.30
2022-10-14T12:53:58.114Z,12.68
2022-10-14T12:56:36.590Z,13.38
2022-10-14T12:59:07.778Z,12.95
2022-10-14T13:01:39.157Z,14.05
2022-10-14T13:04:20.273Z,12.80
2022-10-14T13:07:39.803Z,13.27
2022-10-14T13:10:46.811Z,13.35
2022-10-14T13:13:52.480Z,13.50
2022-10-14T13:17:03.516Z,13.63
2022-10-14T13:19:45.515Z,13.18
2022-10-14T13:22:36.482Z,12.95
2022-10-14T13:25:12.294Z,13.30
2022-10-14T13:28:03.472Z,13.50
2022-10-14T13:30:37.787Z,12.93
2022-10-14T13:33:15.473Z,12.88
2022-10-14T13:35:52.406Z,12.40
2022-10-14T13:38:23.708Z,12.25
2022-10-14T13:40:55.521Z,12.85
2022-10-14T13:43:39.624Z,12.32
2022-10-14T13:46:13.552Z,12.35
2022-10-14T13:48:45.650Z,12.40
2022-10-14T13:51:37.687Z,12.27
2022-10-14T13:54:21.083Z,12.48
2022-10-14T14:02:54.515Z,12.53
2022-10-14T14:05:27.954Z,13.32
2022-10-14T14:08:30.554Z,13.75
2022-10-14T14:11:14.899Z,12.70
2022-10-14T14:13:54.586Z,11.55
2022-10-14T14:16:31.009Z,11.65
2022-10-14T14:19:14.613Z,10.20
2022-10-14T14:21:42.794Z,10.70
2022-10-14T14:24:19.165Z,10.70
2022-10-14T14:26:55.441Z,10.68
2022-10-14T14:29:28.678Z,12.02
2022-10-14T14:32:07.197Z,13.30
2022-10-14T14:34:38.089Z,11.13
2022-10-14T14:40:00.030Z,11.00
2022-10-14T14:42:31.963Z,12.00
2022-10-14T14:45:04.286Z,12.40
2022-10-14T14:47:34.711Z,11.50
2022-10-14T14:50:28.954Z,12.63
2022-10-14T14:52:53.217Z,12.90
2022-10-14T14:56:07.880Z,12.43
2022-10-14T14:58:44.563Z,12.52
2022-10-14T15:01:20.864Z,12.80
2022-10-14T15:04:13.373Z,13.35
2022-10-14T15:06:51.024Z,12.20
2022-10-14T15:09:25.056Z,11.98
2022-10-14T15:11:55.849Z,12.63
2022-10-14T15:14:33.777Z,12.27
2022-10-14T15:17:05.689Z,11.38
2022-10-14T15:19:38.888Z,11.50
2022-10-14T15:22:32.693Z,12.02
2022-10-14T15:25:12.044Z,11.30
2022-10-14T15:27:48.359Z,11.60
2022-10-14T15:30:27.083Z,10.97
2022-10-14T15:32:58.553Z,11.00
2022-10-14T15:35:29.074Z,9.73
2022-10-14T15:37:57.356Z,11.77
2022-10-14T15:40:29.712Z,9.68
2022-10-14T15:42:58.239Z,11.32
2022-10-14T15:45:27.263Z,11.50
2022-10-14T15:48:02.671Z,12.77
2022-10-14T15:50:32.373Z,11.55
2022-10-14T15:53:00.607Z,11.80
2022-10-14T15:55:35.910Z,12.40
2022-10-14T15:58:07.430Z,11.80
2022-10-14T16:00:36.331Z,12.00
2022-10-14T16:03:06.418Z,12.00
2022-10-14T16:05:38.604Z,12.57
2022-10-14T16:08:13.890Z,12.83
2022-10-14T16:10:44.731Z,12.77
2022-10-14T16:13:13.344Z,11.90
2022-10-14T16:15:47.751Z,13.37
2022-10-14T16:18:18.294Z,13.93
2022-10-14T16:20:47.880Z,13.73
2022-10-14T16:23:16.750Z,14.13
2022-10-14T16:25:46.571Z,14.83
2022-10-14T16:28:21.761Z,14.77
2022-10-14T16:30:50.610Z,14.27
2022-10-14T16:33:21.622Z,13.30
2022-10-14T16:35:54.439Z,14.37
2022-10-14T16:38:24.469Z,13.80
2022-10-14T16:40:55.585Z,14.63
2022-10-14T16:43:23.927Z,14.70
2022-10-14T16:45:52.272Z,13.23
2022-10-14T16:48:20.842Z,13.70
2022-10-14T16:50:53.632Z,13.90
2022-10-14T16:53:43.584Z,15.10
2022-10-14T16:56:35.711Z,14.27
2022-10-14T16:59:05.359Z,15.07
2022-10-14T17:01:33.685Z,14.53
2022-10-14T17:04:03.523Z,14.63
2022-10-14T17:06:33.639Z,15.13
2022-10-14T17:09:01.908Z,14.70
2022-10-14T17:11:30.151Z,15.03
2022-10-14T17:14:01.101Z,14.80
2022-10-14T17:16:29.729Z,14.30
2022-10-14T17:18:58.946Z,14.40
2022-10-14T17:21:29.521Z,15.07
2022-10-14T17:24:02.550Z,14.50
2022-10-14T17:26:31.992Z,13.87
2022-10-14T17:29:00.617Z,15.37
2022-10-14T17:31:29.655Z,15.17
2022-10-14T17:33:59.755Z,15.27
2022-10-14T17:36:30.863Z,16.80
2022-10-14T17:39:00.984Z,17.43
2022-10-14T17:41:30.922Z,16.87
2022-10-14T17:44:01.440Z,16.60
2022-10-14T17:46:31.571Z,16.63
2022-10-14T17:49:03.749Z,17.50
2022-10-14T17:51:32.822Z,16.53
2022-10-14T17:54:03.956Z,18.17
2022-10-14T17:56:33.675Z,17.20
2022-10-14T17:59:03.677Z,15.73
2022-10-14T18:01:43.750Z,16.77
2022-10-14T18:06:55.113Z,17.07
2022-10-14T18:09:24.679Z,18.67
2022-10-14T18:12:09.883Z,18.30
2022-10-14T18:14:38.738Z,18.20
2022-10-14T18:17:07.662Z,19.60
2022-10-14T18:19:36.065Z,19.60
2022-10-14T18:22:06.599Z,18.67
2022-10-14T18:24:38.408Z,18.87
2022-10-14T18:27:07.555Z,17.90
2022-10-14T18:29:35.835Z,18.83
2022-10-14T18:32:04.378Z,18.30
2022-10-14T18:34:33.216Z,19.60
2022-10-14T18:37:01.498Z,19.77
2022-10-14T18:39:29.734Z,20.43
2022-10-14T18:41:59.472Z,20.10
2022-10-14T18:44:29.917Z,20.57
2022-10-14T18:46:58.141Z,21.63
2022-10-14T18:49:26.379Z,20.27
2022-10-14T18:51:55.271Z,20.60
2022-10-14T18:54:24.959Z,22.00
2022-10-14T18:56:54.845Z,23.73
2022-10-14T18:59:24.935Z,22.30
2022-10-14T19:01:54.031Z,20.93
2022-10-14T19:04:24.581Z,22.80
2022-10-14T19:06:52.941Z,27.30
2022-10-14T19:09:24.881Z,27.87
2022-10-14T19:11:53.308Z,27.93
2022-10-14T19:14:22.605Z,27.73
2022-10-14T19:16:52.237Z,25.47
2022-10-14T19:19:20.936Z,25.30
2022-10-14T19:21:54.442Z,26.80
2022-10-14T19:24:22.989Z,26.97
2022-10-14T19:26:51.617Z,25.53
2022-10-14T19:29:19.895Z,26.53
2022-10-14T19:31:51.035Z,25.53
2022-10-14T19:34:22.907Z,28.13
2022-10-14T19:36:52.999Z,29.00
2022-10-14T19:39:21.374Z,28.63
2022-10-14T19:41:49.548Z,28.30
2022-10-14T19:44:18.264Z,27.87
2022-10-14T19:46:46.960Z,27.57
2022-10-14T19:49:16.783Z,26.70
2022-10-14T19:51:46.471Z,25.67
2022-10-14T19:54:15.538Z,26.13
2022-10-14T19:56:44.201Z,26.70
2022-10-14T19:59:13.567Z,26.30
2022-10-14T20:01:41.969Z,27.80
2022-10-14T20:04:10.369Z,25.60
2022-10-14T20:06:40.102Z,27.60
2022-10-14T20:09:09.869Z,28.97
2022-10-14T20:11:38.258Z,28.90
2022-10-14T20:14:06.509Z,28.37
2022-10-14T20:16:35.146Z,26.83
2022-10-14T20:19:04.119Z,28.77
2022-10-14T20:21:32.351Z,28.20
2022-10-14T20:24:00.750Z,28.43
2022-10-14T20:26:31.037Z,26.97
2022-10-14T20:28:59.440Z,27.47
2022-10-14T20:31:27.927Z,27.13
2022-10-14T20:33:58.976Z,26.80
2022-10-14T20:36:27.480Z,26.17
2022-10-14T20:38:55.734Z,26.07
2022-10-14T20:41:25.886Z,27.33
2022-10-14T20:43:56.972Z,26.17
2022-10-14T20:46:25.596Z,25.73
2022-10-14T20:48:57.085Z,23.90
2022-10-14T20:51:28.133Z,23.87
2022-10-14T20:54:01.711Z,23.23
2022-10-14T20:56:34.046Z,23.87
2022-10-14T20:59:06.198Z,22.57
2022-10-14T21:01:36.171Z,23.17
2022-10-14T21:04:07.160Z,23.13
2022-10-14T21:06:36.354Z,21.60
2022-10-14T21:09:04.954Z,22.17
2022-10-14T21:11:33.305Z,22.43
2022-10-14T21:14:03.739Z,21.70
2022-10-14T21:16:34.290Z,22.10
2022-10-14T21:19:04.947Z,21.77
2022-10-14T21:21:37.054Z,20.37
2022-10-14T21:24:06.070Z,20.00
2022-10-14T21:26:34.515Z,19.33
2022-10-14T21:29:04.683Z,19.13
2022-10-14T21:31:33.060Z,18.93
2022-10-14T21:34:05.788Z,19.97
2022-10-14T21:36:35.355Z,19.10
2022-10-14T21:39:07.287Z,18.83
2022-10-14T21:41:36.183Z,18.33
2022-10-14T21:44:06.604Z,19.90
2022-10-14T21:46:35.493Z,19.10
2022-10-14T21:49:03.833Z,19.03
2022-10-14T21:51:35.382Z,19.10
2022-10-14T21:54:04.145Z,19.13
2022-10-14T21:56:32.402Z,19.33
2022-10-14T21:59:00.676Z,19.50
2022-10-14T22:01:31.025Z,18.57
2022-10-14T22:04:01.308Z,19.00
2022-10-14T22:06:29.890Z,19.00
2022-10-14T22:09:00.157Z,17.63
2022-10-14T22:11:30.016Z,17.53
2022-10-14T22:14:00.326Z,19.10
2022-10-14T22:16:30.748Z,17.47
2022-10-14T22:19:00.401Z,16.73
2022-10-14T22:21:32.721Z,16.87
2022-10-14T22:24:02.750Z,16.23
2022-10-14T22:26:31.368Z,15.53
2022-10-14T22:29:03.180Z,15.80
2022-10-14T22:31:34.024Z,15.80
2022-10-14T22:34:02.701Z,14.90
2022-10-14T22:36:32.241Z,16.17
2022-10-14T22:39:02.327Z,16.27
2022-10-14T22:41:35.126Z,14.90
2022-10-14T22:44:05.404Z,14.63
2022-10-14T22:46:36.404Z,15.27
2022-10-14T22:49:04.783Z,14.90
2022-10-14T22:51:35.571Z,14.63
2022-10-14T22:54:04.173Z,15.00
2022-10-14T22:56:33.404Z,15.20
2022-10-14T22:59:04.254Z,14.33
2022-10-14T23:01:33.893Z,15.20
2022-10-14T23:04:03.193Z,16.03
2022-10-14T23:06:32.647Z,14.07
2022-10-14T23:09:01.147Z,14.87
2022-10-14T23:11:30.870Z,15.97
2022-10-14T23:14:02.822Z,15.03
2022-10-14T23:16:36.280Z,16.13
2022-10-14T23:19:04.787Z,15.60
2022-10-14T23:21:34.726Z,15.73
2022-10-14T23:24:06.385Z,15.73
2022-10-14T23:26:35.985Z,14.40
2022-10-14T23:29:06.944Z,15.30
2022-10-14T23:31:37.813Z,15.23
2022-10-14T23:34:08.423Z,14.67
2022-10-14T23:36:38.137Z,14.53
2022-10-14T23:39:09.074Z,15.07
2022-10-14T23:41:37.452Z,15.17
2022-10-14T23:44:05.607Z,15.30
2022-10-14T23:46:33.799Z,15.33
2022-10-14T23:49:26.110Z,15.33
2022-10-14T23:51:51.600Z,13.97
2022-10-14T23:54:20.063Z,15.27
2022-10-14T23:56:48.268Z,13.90
2022-10-14T23:59:16.969Z,15.33
